2005 BOLAVEN (2005316N05134)


On this page: IBTrACS data - Map and Plots - Positions - Intensities - Original source data

Summary

Start Nov 12
End Nov 20
Basin WP
LMI 70 kt
Sources jtwc_wp
tokyo
cma
hko
In WMO? Yes
Previous storm 2005 TEMBIN (WP)
Previous in basin 2005 TEMBIN (WP)
Concurrent storms 2005 TEMBIN (WP)
2005 BOLAVEN (WP)
2005 GAMMA (NA)
2006 ALVIN (SI)
2005 MISSING (NI)
2005 DELTA (NA)
Next in basin Missing
Next storm 2005 GAMMA (NA)

top of page IBTrACS Data: File Access

top of page HURSAT Data: File Access

Image of storm

top of page Plots:

Map of storm track will not appear if FTP is down
Time series of cyclone Maximum Sustained Wind will not appear if FTP is down
Time series of cyclone Minimum Central Pressure will not appear if FTP is down

top of page Track Data:Position

jtwc_wp tokyo cma hko
Date Lat Lon Lat Lon Lat Lon Lat Lon
2005-11-12 00:00:00 5.4 133.7
2005-11-12 06:00:00 5.7 133.2
2005-11-12 12:00:00 6.1 132.7
2005-11-12 18:00:00 6.3 132.1
2005-11-13 00:00:00 6.5 131.5
2005-11-13 06:00:00 6.7 130.9
2005-11-13 12:00:00 7.0 130.1
2005-11-13 18:00:00 7.6 129.5
2005-11-14 00:00:00 8.4 129.3 8.8 129.6 8.8 129.6
2005-11-14 06:00:00 9.1 129.4 9.2 129.4 9.6 128.6 9.6 128.2
2005-11-14 12:00:00 9.7 129.5 9.6 129.5 10.2 128.4 10.2 128.4
2005-11-14 18:00:00 10.3 129.7 10.0 129.8 10.6 128.8 10.6 128.9
2005-11-15 00:00:00 10.8 130.0 10.8 129.9 10.8 129.7 10.8 129.8
2005-11-15 06:00:00 11.7 130.4 11.4 130.0 11.4 130.0 11.4 130.2
2005-11-15 12:00:00 12.8 130.8 12.3 130.0 12.3 130.0 12.3 130.4
2005-11-15 18:00:00 13.6 131.0 12.8 130.0 13.5 130.0 13.6 130.4
2005-11-16 00:00:00 13.8 130.5 13.0 129.9 13.8 129.8 14.0 130.2
2005-11-16 06:00:00 13.7 130.2 13.2 129.8 13.9 129.6 14.0 129.7
2005-11-16 12:00:00 13.5 130.4 13.3 129.7 13.6 129.6 13.7 129.4
2005-11-16 18:00:00 13.5 130.1 13.3 129.3 13.4 129.4 13.2 129.3
2005-11-17 00:00:00 13.3 129.9 13.2 129.0 13.2 129.2 13.1 128.9
2005-11-17 06:00:00 13.2 129.6 13.0 128.9 13.0 128.8 13.2 128.4
2005-11-17 12:00:00 13.5 129.6 13.1 128.7 13.3 128.4 13.6 128.1
2005-11-17 18:00:00 13.8 129.4 13.2 128.6 13.6 128.1 13.8 128.1
2005-11-18 00:00:00 14.1 128.9 13.3 128.5 13.8 128.0 14.1 128.2
jtwc_wp tokyo cma hko
2005-11-18 06:00:00 14.5 128.3 13.7 128.1 14.4 128.3 14.4 128.2
2005-11-18 12:00:00 14.9 127.3 14.2 127.2 14.8 127.3 14.8 127.6
2005-11-18 18:00:00 15.2 126.2 14.6 126.3 14.8 126.3 15.0 126.3
2005-11-19 00:00:00 15.4 125.1 15.1 125.2 15.2 125.3 15.2 125.2
2005-11-19 06:00:00 15.8 124.4 15.5 124.6 15.5 124.6 15.6 124.4
2005-11-19 12:00:00 16.1 123.8 16.1 123.9 16.1 123.9 16.1 123.8
2005-11-19 18:00:00 16.5 123.3 16.5 123.1 16.5 123.4 16.5 123.4
2005-11-20 00:00:00 17.0 122.6 17.1 122.3 17.1 122.3 16.8 123.1
2005-11-20 06:00:00 17.7 121.8 17.9 121.1 17.9 121.1 17.3 123.0
2005-11-20 12:00:00 18.5 121.3
2005-11-20 18:00:00 19.1 121.3

top of pageTrack Data:Intensity

jtwc_wp tokyo cma hko
Date Wind Pres Wind Pres Wind Pres Wind Pres
2005-11-12 00:00:00 20. 1004.
2005-11-12 06:00:00 20. 1004.
2005-11-12 12:00:00 20. 1004.
2005-11-12 18:00:00 20. 1004.
2005-11-13 00:00:00 25. 1002.
2005-11-13 06:00:00 30. 1000.
2005-11-13 12:00:00 30. 1000.
2005-11-13 18:00:00 30. 1000.
2005-11-14 00:00:00 35. 997. 1004. 29. 1002.
2005-11-14 06:00:00 35. 997. 1002. 29. 1002. 25. 1002.
2005-11-14 12:00:00 35. 997. 1002. 29. 1000. 25. 1002.
2005-11-14 18:00:00 40. 994. 1000. 29. 1000. 25. 1002.
2005-11-15 00:00:00 40. 994. 1000. 29. 1000. 25. 1002.
2005-11-15 06:00:00 40. 994. 996. 29. 1000. 25. 1002.
2005-11-15 12:00:00 40. 994. 998. 29. 1000. 25. 1002.
2005-11-15 18:00:00 50. 987. 996. 29. 1000. 30. 1000.
2005-11-16 00:00:00 55. 984. 996. 29. 1000. 30. 1000.
2005-11-16 06:00:00 60. 980. 35. 996. 35. 995. 35. 996.
2005-11-16 12:00:00 60. 980. 40. 996. 45. 990. 40. 992.
2005-11-16 18:00:00 60. 980. 45. 994. 49. 985. 45. 988.
2005-11-17 00:00:00 60. 980. 50. 990. 54. 985. 50. 984.
2005-11-17 06:00:00 65. 976. 55. 985. 54. 985. 55. 980.
2005-11-17 12:00:00 70. 972. 55. 985. 64. 975. 60. 975.
2005-11-17 18:00:00 70. 972. 55. 985. 64. 975. 60. 975.
2005-11-18 00:00:00 70. 972. 55. 985. 58. 980. 60. 975.
jtwc_wp tokyo cma hko
2005-11-18 06:00:00 65. 976. 55. 985. 58. 980. 60. 975.
2005-11-18 12:00:00 65. 976. 55. 985. 58. 980. 60. 975.
2005-11-18 18:00:00 60. 980. 55. 985. 58. 980. 60. 975.
2005-11-19 00:00:00 55. 984. 55. 985. 54. 985. 60. 975.
2005-11-19 06:00:00 60. 980. 45. 985. 49. 985. 55. 980.
2005-11-19 12:00:00 45. 991. 40. 990. 45. 990. 45. 988.
2005-11-19 18:00:00 45. 991. 35. 998. 35. 992. 40. 992.
2005-11-20 00:00:00 35. 997. 1006. 29. 998. 35. 996.
2005-11-20 06:00:00 30. 1000. 1006. 29. 1000. 30. 1000.
2005-11-20 12:00:00 25. 1002.
2005-11-20 18:00:00 20. 1004.

top of page Links to source data

Source Source file Format
jtwc_wp bwp242005.txt ATCF
tokyo bst_all.txt:Line=55341:BOLAVEN:523 JMA text table
cma CH2005BST.txt:Storm=23:Bolaven CMA text table
hko tc-besttrack-data-current.txt:Line=31809:BOLAVEN HKO Text table